Time,TemperatureF,DewpointF,PressureIn,WindDirection,WindDirectionDegrees,WindSpeedMPH,WindSpeedGustMPH,Humidity,HourlyPrecipIn,Conditions,Clouds,dailyrainin,SoftwareType,DateUTC
2013-01-01 00:26:00,34.5,27.0,30.11,West,273,0.0,2.0,75,0.00,,,0.00,weatherlink.com 1.10,2013-01-01 05:26:00,
2013-01-01 00:41:00,34.5,27.0,30.11,NNW,347,2.0,3.0,75,0.00,,,0.00,weatherlink.com 1.10,2013-01-01 05:41:00,
2013-01-01 00:56:00,34.4,28.0,30.11,SW,216,1.0,3.0,76,0.00,,,0.00,weatherlink.com 1.10,2013-01-01 05:56:00,
2013-01-01 01:12:00,34.5,28.0,30.10,NW,307,0.0,5.0,76,0.00,,,0.00,weatherlink.com 1.10,2013-01-01 06:12:00,
2013-01-01 01:27:00,34.4,28.0,30.10,NNW,330,2.0,5.0,76,0.00,,,0.00,weatherlink.com 1.10,2013-01-01 06:27:00,
2013-01-01 01:42:00,34.5,28.0,30.09,North,352,0.0,6.0,76,0.00,,,0.00,weatherlink.com 1.10,2013-01-01 06:42:00,
2013-01-01 01:57:00,34.5,28.0,30.10,SW,231,0.0,5.0,77,0.00,,,0.00,weatherlink.com 1.10,2013-01-01 06:57:00,
2013-01-01 02:12:00,34.3,28.0,30.11,NW,305,1.0,5.0,77,0.00,,,0.00,weatherlink.com 1.10,2013-01-01 07:12:00,
2013-01-01 02:27:00,34.2,28.0,30.11,NE,42,1.0,4.0,79,0.00,,,0.00,weatherlink.com 1.10,2013-01-01 07:27:00,
2013-01-01 02:43:00,33.6,29.0,30.10,NNW,333,0.0,8.0,83,0.00,,,0.00,weatherlink.com 1.10,2013-01-01 07:43:00,
2013-01-01 02:57:00,32.8,29.0,30.10,West,259,2.0,8.0,87,0.00,,,0.00,weatherlink.com 1.10,2013-01-01 07:57:00,
2013-01-01 03:12:00,32.4,30.0,30.11,SW,236,5.0,9.0,90,0.00,,,0.00,weatherlink.com 1.10,2013-01-01 08:12:00,
2013-01-01 03:27:00,32.2,30.0,30.10,NW,319,2.0,6.0,91,0.00,,,0.00,weatherlink.com 1.10,2013-01-01 08:27:00,
2013-01-01 03:42:00,-999.0,-99.9,30.08,North,-999,-999.0,-999.0,-999,0.00,,,0.00,weatherlink.com 1.10,2013-01-01 08:42:00,
2013-01-01 03:57:00,-999.0,-99.9,30.09,North,-999,-999.0,-999.0,-999,0.00,,,0.00,weatherlink.com 1.10,2013-01-01 08:57:00,
2013-01-01 04:12:00,-999.0,-99.9,30.09,North,-999,-999.0,-999.0,-999,0.00,,,0.00,weatherlink.com 1.10,2013-01-01 09:12:00,
2013-01-01 04:27:00,-999.0,-99.9,30.08,North,-999,-999.0,-999.0,-999,0.00,,,0.00,weatherlink.com 1.10,2013-01-01 09:27:00,
2013-01-01 04:42:00,-999.0,-99.9,30.08,North,-999,-999.0,-999.0,-999,0.00,,,0.00,weatherlink.com 1.10,2013-01-01 09:42:00,
2013-01-01 04:57:00,-999.0,-99.9,30.07,North,-999,-999.0,-999.0,-999,0.00,,,0.00,weatherlink.com 1.10,2013-01-01 09:57:00,
2013-01-01 05:12:00,-999.0,-99.9,30.07,North,-999,-999.0,-999.0,-999,0.00,,,0.00,weatherlink.com 1.10,2013-01-01 10:12:00,
2013-01-01 05:27:00,-999.0,-99.9,30.06,North,-999,-999.0,-999.0,-999,0.00,,,0.00,weatherlink.com 1.10,2013-01-01 10:27:00,
2013-01-01 05:42:00,-999.0,-99.9,30.05,North,-999,-999.0,-999.0,-999,0.00,,,0.00,weatherlink.com 1.10,2013-01-01 10:42:00,
2013-01-01 05:58:00,-999.0,-99.9,30.06,North,-999,-999.0,-999.0,-999,0.00,,,0.00,weatherlink.com 1.10,2013-01-01 10:58:00,
2013-01-01 06:13:00,-999.0,-99.9,30.06,North,-999,-999.0,-999.0,-999,0.00,,,0.00,weatherlink.com 1.10,2013-01-01 11:13:00,
2013-01-01 06:28:00,-999.0,-99.9,30.05,North,-999,-999.0,-999.0,-999,0.00,,,0.00,weatherlink.com 1.10,2013-01-01 11:28:00,
2013-01-01 06:43:00,-999.0,-99.9,30.05,North,-999,-999.0,-999.0,-999,0.00,,,0.00,weatherlink.com 1.10,2013-01-01 11:43:00,
2013-01-01 06:58:00,-999.0,-99.9,30.06,North,-999,-999.0,-999.0,-999,0.00,,,0.00,weatherlink.com 1.10,2013-01-01 11:58:00,
2013-01-01 07:13:00,-999.0,-99.9,30.05,North,-999,-999.0,-999.0,-999,0.00,,,0.00,weatherlink.com 1.10,2013-01-01 12:13:00,
2013-01-01 07:28:00,-999.0,-99.9,30.07,North,-999,-999.0,-999.0,-999,0.00,,,0.00,weatherlink.com 1.10,2013-01-01 12:28:00,
2013-01-01 07:43:00,-999.0,-99.9,30.05,North,-999,-999.0,-999.0,-999,0.00,,,0.00,weatherlink.com 1.10,2013-01-01 12:43:00,
2013-01-01 07:58:00,-999.0,-99.9,30.06,North,-999,-999.0,-999.0,-999,0.00,,,0.00,weatherlink.com 1.10,2013-01-01 12:58:00,
2013-01-01 08:13:00,-999.0,-99.9,30.07,North,-999,-999.0,-999.0,-999,0.00,,,0.00,weatherlink.com 1.10,2013-01-01 13:13:00,
2013-01-01 08:28:00,-999.0,-99.9,30.07,North,-999,-999.0,-999.0,-999,0.00,,,0.00,weatherlink.com 1.10,2013-01-01 13:28:00,
2013-01-01 08:43:00,-999.0,-99.9,30.08,North,-999,-999.0,-999.0,-999,0.00,,,0.00,weatherlink.com 1.10,2013-01-01 13:43:00,
2013-01-01 08:58:00,-999.0,-99.9,30.07,North,-999,-999.0,-999.0,-999,0.00,,,0.00,weatherlink.com 1.10,2013-01-01 13:58:00,
2013-01-01 09:13:00,-999.0,-99.9,30.09,North,-999,-999.0,-999.0,-999,0.00,,,0.00,weatherlink.com 1.10,2013-01-01 14:13:00,
2013-01-01 09:29:00,-999.0,-99.9,30.07,North,-999,-999.0,-999.0,-999,0.00,,,0.00,weatherlink.com 1.10,2013-01-01 14:29:00,
2013-01-01 09:45:00,-999.0,-99.9,30.07,North,-999,-999.0,-999.0,-999,0.00,,,0.00,weatherlink.com 1.10,2013-01-01 14:45:00,
2013-01-01 09:59:00,32.9,32.0,30.07,North,351,0.0,2.0,95,0.00,,,0.00,weatherlink.com 1.10,2013-01-01 14:59:00,
2013-01-01 10:14:00,33.1,32.0,30.08,SW,218,0.0,1.0,95,0.00,,,0.00,weatherlink.com 1.10,2013-01-01 15:14:00,
2013-01-01 10:29:00,33.1,32.0,30.08,SSW,205,0.0,2.0,95,0.00,,,0.00,weatherlink.com 1.10,2013-01-01 15:29:00,
2013-01-01 10:44:00,33.4,32.0,30.08,SW,224,0.0,2.0,95,0.00,,,0.00,weatherlink.com 1.10,2013-01-01 15:44:00,
2013-01-01 10:59:00,33.3,32.0,30.08,NW,311,0.0,4.0,95,0.00,,,0.00,weatherlink.com 1.10,2013-01-01 15:59:00,
2013-01-01 11:14:00,33.3,32.0,30.07,SW,232,0.0,2.0,95,0.00,,,0.00,weatherlink.com 1.10,2013-01-01 16:14:00,
2013-01-01 11:29:00,33.4,32.0,30.07,NW,311,0.0,1.0,95,0.00,,,0.00,weatherlink.com 1.10,2013-01-01 16:29:00,
2013-01-01 11:44:00,33.4,32.0,30.05,SW,232,0.0,1.0,95,0.00,,,0.00,weatherlink.com 1.10,2013-01-01 16:44:00,
2013-01-01 11:59:00,33.3,32.0,30.05,West,259,0.0,1.0,95,0.00,,,0.00,weatherlink.com 1.10,2013-01-01 16:59:00,
2013-01-01 12:14:00,33.2,32.0,30.04,SW,222,1.0,1.0,95,0.00,,,0.00,weatherlink.com 1.10,2013-01-01 17:14:00,
2013-01-01 12:29:00,33.1,32.0,30.03,WSW,246,0.0,1.0,95,0.00,,,0.00,weatherlink.com 1.10,2013-01-01 17:29:00,
2013-01-01 12:44:00,33.1,32.0,30.03,WSW,253,0.0,1.0,95,0.00,,,0.00,weatherlink.com 1.10,2013-01-01 17:44:00,
2013-01-01 12:59:00,33.0,32.0,30.03,WSW,242,0.0,2.0,95,0.00,,,0.00,weatherlink.com 1.10,2013-01-01 17:59:00,
2013-01-01 13:14:00,33.0,32.0,30.03,West,266,0.0,2.0,95,0.00,,,0.00,weatherlink.com 1.10,2013-01-01 18:14:00,
2013-01-01 13:29:00,33.0,32.0,30.02,NNE,15,1.0,2.0,95,0.00,,,0.00,weatherlink.com 1.10,2013-01-01 18:29:00,
2013-01-01 13:44:00,33.1,32.0,30.02,WSW,252,0.0,1.0,95,0.00,,,0.00,weatherlink.com 1.10,2013-01-01 18:44:00,
2013-01-01 13:59:00,33.0,32.0,30.01,WSW,241,0.0,1.0,94,0.00,,,0.00,weatherlink.com 1.10,2013-01-01 18:59:00,
2013-01-01 14:14:00,33.0,32.0,30.02,WSW,238,0.0,2.0,94,0.00,,,0.00,weatherlink.com 1.10,2013-01-01 19:14:00,
2013-01-01 14:29:00,33.1,32.0,30.02,SW,227,1.0,1.0,94,0.00,,,0.00,weatherlink.com 1.10,2013-01-01 19:29:00,
2013-01-01 14:44:00,33.0,32.0,30.01,SW,218,1.0,1.0,94,0.00,,,0.00,weatherlink.com 1.10,2013-01-01 19:44:00,
2013-01-01 14:59:00,32.9,31.0,30.02,WSW,239,0.0,1.0,94,0.00,,,0.00,weatherlink.com 1.10,2013-01-01 19:59:00,
2013-01-01 15:14:00,32.9,31.0,30.03,West,276,1.0,2.0,94,0.00,,,0.00,weatherlink.com 1.10,2013-01-01 20:14:00,
2013-01-01 15:29:00,32.8,31.0,30.04,WSW,240,0.0,2.0,94,0.00,,,0.00,weatherlink.com 1.10,2013-01-01 20:29:00,
2013-01-01 15:44:00,32.8,31.0,30.04,SW,229,0.0,3.0,94,0.00,,,0.00,weatherlink.com 1.10,2013-01-01 20:44:00,
2013-01-01 15:59:00,32.7,31.0,30.04,NNW,347,0.0,2.0,94,0.00,,,0.00,weatherlink.com 1.10,2013-01-01 20:59:00,
2013-01-01 16:14:00,32.7,31.0,30.05,NNW,331,0.0,2.0,94,0.00,,,0.00,weatherlink.com 1.10,2013-01-01 21:14:00,
2013-01-01 16:30:00,32.6,31.0,30.04,WSW,253,0.0,1.0,94,0.00,,,0.00,weatherlink.com 1.10,2013-01-01 21:30:00,
2013-01-01 16:44:00,32.5,31.0,30.05,WSW,238,1.0,1.0,94,0.00,,,0.00,weatherlink.com 1.10,2013-01-01 21:44:00,
2013-01-01 16:59:00,32.4,31.0,30.05,NW,314,0.0,2.0,94,0.00,,,0.00,weatherlink.com 1.10,2013-01-01 21:59:00,
2013-01-01 17:14:00,32.4,31.0,30.06,NW,304,2.0,2.0,94,0.00,,,0.00,weatherlink.com 1.10,2013-01-01 22:14:00,
2013-01-01 17:29:00,32.3,31.0,30.07,SW,224,1.0,3.0,94,0.00,,,0.00,weatherlink.com 1.10,2013-01-01 22:29:00,
2013-01-01 17:44:00,32.2,31.0,30.06,WSW,251,0.0,1.0,94,0.00,,,0.00,weatherlink.com 1.10,2013-01-01 22:44:00,
2013-01-01 17:59:00,32.1,31.0,30.05,SSW,207,0.0,2.0,94,0.00,,,0.00,weatherlink.com 1.10,2013-01-01 22:59:00,
2013-01-01 18:14:00,32.1,31.0,30.07,WSW,242,0.0,3.0,94,0.00,,,0.00,weatherlink.com 1.10,2013-01-01 23:14:00,
2013-01-01 18:29:00,32.1,31.0,30.08,WSW,242,0.0,1.0,94,0.00,,,0.00,weatherlink.com 1.10,2013-01-01 23:29:00,
2013-01-01 18:44:00,32.1,31.0,30.07,West,264,0.0,2.0,94,0.00,,,0.00,weatherlink.com 1.10,2013-01-01 23:44:00,
2013-01-01 18:59:00,32.1,31.0,30.07,SW,226,0.0,1.0,94,0.00,,,0.00,weatherlink.com 1.10,2013-01-01 23:59:00,
2013-01-01 19:14:00,32.1,31.0,30.07,SW,231,0.0,2.0,94,0.00,,,0.00,weatherlink.com 1.10,2013-01-02 00:14:00,
2013-01-01 19:29:00,31.9,30.0,30.07,NW,304,0.0,2.0,94,0.00,,,0.00,weatherlink.com 1.10,2013-01-02 00:29:00,
2013-01-01 19:44:00,31.7,31.0,30.08,WNW,301,0.0,2.0,95,0.00,,,0.00,weatherlink.com 1.10,2013-01-02 00:44:00,
2013-01-01 19:59:00,31.3,30.0,30.08,SW,216,0.0,4.0,95,0.00,,,0.00,weatherlink.com 1.10,2013-01-02 00:59:00,
2013-01-01 20:14:00,31.1,30.0,30.08,NW,304,0.0,2.0,95,0.00,,,0.00,weatherlink.com 1.10,2013-01-02 01:14:00,
2013-01-01 20:29:00,31.1,30.0,30.08,SE,127,0.0,1.0,96,0.00,,,0.00,weatherlink.com 1.10,2013-01-02 01:29:00,
2013-01-01 20:44:00,30.8,30.0,30.07,ESE,104,0.0,2.0,95,0.00,,,0.00,weatherlink.com 1.10,2013-01-02 01:44:00,
2013-01-01 20:59:00,30.7,30.0,30.08,ESE,110,0.0,2.0,95,0.00,,,0.00,weatherlink.com 1.10,2013-01-02 01:59:00,
2013-01-01 21:14:00,30.6,29.0,30.09,NW,322,0.0,1.0,94,0.00,,,0.00,weatherlink.com 1.10,2013-01-02 02:14:00,
2013-01-01 21:29:00,30.6,29.0,30.07,SW,216,0.0,1.0,94,0.00,,,0.00,weatherlink.com 1.10,2013-01-02 02:29:00,
2013-01-01 21:44:00,30.4,29.0,30.08,North,356,0.0,0.0,93,0.00,,,0.00,weatherlink.com 1.10,2013-01-02 02:44:00,
2013-01-01 21:59:00,30.3,28.0,30.08,North,11,0.0,1.0,92,0.00,,,0.00,weatherlink.com 1.10,2013-01-02 02:59:00,
2013-01-01 22:14:00,30.3,28.0,30.08,NNW,327,1.0,1.0,92,0.00,,,0.00,weatherlink.com 1.10,2013-01-02 03:14:00,
2013-01-01 22:29:00,30.1,28.0,30.08,SSE,166,0.0,1.0,91,0.00,,,0.00,weatherlink.com 1.10,2013-01-02 03:29:00,
2013-01-01 22:44:00,30.0,28.0,30.09,SSW,210,0.0,1.0,91,0.00,,,0.00,weatherlink.com 1.10,2013-01-02 03:44:00,
2013-01-01 22:59:00,29.9,28.0,30.09,SW,235,0.0,1.0,91,0.00,,,0.00,weatherlink.com 1.10,2013-01-02 03:59:00,
2013-01-01 23:14:00,29.9,28.0,30.09,NNW,342,0.0,1.0,91,0.00,,,0.00,weatherlink.com 1.10,2013-01-02 04:14:00,
2013-01-01 23:29:00,29.6,27.0,30.08,WNW,300,1.0,2.0,90,0.00,,,0.00,weatherlink.com 1.10,2013-01-02 04:29:00,
2013-01-01 23:44:00,29.4,27.0,30.08,NW,319,0.0,1.0,90,0.00,,,0.00,weatherlink.com 1.10,2013-01-02 04:44:00,